createdAt,value
2016-07-12T00:00:09.577Z,1007.23
2016-07-12T00:00:19.568Z,1007.25
2016-07-12T00:00:29.568Z,1007.24
2016-07-12T00:00:39.572Z,1007.19
2016-07-12T00:00:49.559Z,1007.25
2016-07-12T00:00:59.553Z,1007.21
2016-07-12T00:01:09.548Z,1007.21
2016-07-12T00:01:19.542Z,1007.2
2016-07-12T00:01:29.538Z,1007.22
2016-07-12T00:01:39.533Z,1007.26
2016-07-12T00:01:49.534Z,1007.19
2016-07-12T00:01:59.525Z,1007.25
2016-07-12T00:02:09.524Z,1007.16
2016-07-12T00:02:19.518Z,1007.24
2016-07-12T00:02:29.512Z,1007.18
2016-07-12T00:02:39.508Z,1007.22
2016-07-12T00:02:49.505Z,1007.2
2016-07-12T00:02:59.499Z,1007.18
2016-07-12T00:03:09.495Z,1007.19
2016-07-12T00:03:19.491Z,1007.15
2016-07-12T00:03:29.489Z,1007.17
2016-07-12T00:03:39.481Z,1007.2
2016-07-12T00:03:49.472Z,1007.2
2016-07-12T00:03:59.477Z,1007.18
2016-07-12T00:04:09.465Z,1007.21
2016-07-12T00:04:19.460Z,1007.2
2016-07-12T00:04:29.455Z,1007.2
2016-07-12T00:04:39.450Z,1007.23
2016-07-12T00:04:49.448Z,1007.22
2016-07-12T00:04:59.442Z,1007.22
2016-07-12T00:05:09.445Z,1007.25
2016-07-12T00:05:19.443Z,1007.24
2016-07-12T00:05:29.430Z,1007.2
2016-07-12T00:05:39.426Z,1007.18
2016-07-12T00:05:49.421Z,1007.18
2016-07-12T00:05:59.418Z,1007.19
2016-07-12T00:06:09.409Z,1007.23
2016-07-12T00:06:19.408Z,1007.23
2016-07-12T00:06:29.402Z,1007.25
2016-07-12T00:06:39.399Z,1007.24
2016-07-12T00:06:49.393Z,1007.27
2016-07-12T00:06:59.389Z,1007.25
2016-07-12T00:07:09.386Z,1007.25
2016-07-12T00:07:19.381Z,1007.26
2016-07-12T00:07:29.378Z,1007.26
2016-07-12T00:07:39.367Z,1007.28
2016-07-12T00:07:49.367Z,1007.2
2016-07-12T00:07:59.362Z,1007.24
2016-07-12T00:08:09.360Z,1007.26
2016-07-12T00:08:19.354Z,1007.25
2016-07-12T00:08:29.350Z,1007.28
2016-07-12T00:08:39.355Z,1007.21
2016-07-12T00:08:49.343Z,1007.22
2016-07-12T00:08:59.336Z,1007.24
2016-07-12T00:09:09.331Z,1007.23
2016-07-12T00:09:19.325Z,1007.2
2016-07-12T00:09:29.321Z,1007.26
2016-07-12T00:09:39.320Z,1007.2
2016-07-12T00:09:49.317Z,1007.21
2016-07-12T00:09:59.307Z,1007.21
2016-07-12T00:10:09.300Z,1007.21
2016-07-12T00:10:19.298Z,1007.17
2016-07-12T00:10:30.032Z,1007.21
2016-07-12T00:10:39.288Z,1007.17
2016-07-12T00:10:49.284Z,1007.2
2016-07-12T00:10:59.279Z,1007.19
2016-07-12T00:11:09.275Z,1007.18
2016-07-12T00:11:19.270Z,1007.16
2016-07-12T00:11:29.264Z,1007.16
2016-07-12T00:11:39.281Z,1007.18
2016-07-12T00:11:49.261Z,1007.22
2016-07-12T00:11:59.253Z,1007.21
2016-07-12T00:12:09.248Z,1007.18
2016-07-12T00:12:19.244Z,1007.18
2016-07-12T00:12:29.239Z,1007.16
2016-07-12T00:12:39.237Z,1007.16
2016-07-12T00:12:49.231Z,1007.2
2016-07-12T00:12:59.956Z,1007.21
2016-07-12T00:13:09.224Z,1007.18
2016-07-12T00:13:19.217Z,1007.21
2016-07-12T00:13:29.215Z,1007.26
2016-07-12T00:13:39.206Z,1007.2
2016-07-12T00:13:49.200Z,1007.22
2016-07-12T00:13:59.200Z,1007.24
2016-07-12T00:14:09.194Z,1007.22
2016-07-12T00:14:19.189Z,1007.21
2016-07-12T00:14:29.186Z,1007.24
2016-07-12T00:14:39.189Z,1007.22
2016-07-12T00:14:49.175Z,1007.22
2016-07-12T00:14:59.171Z,1007.27
2016-07-12T00:15:09.168Z,1007.25
2016-07-12T00:15:19.160Z,1007.23
2016-07-12T00:15:29.156Z,1007.21
2016-07-12T00:15:39.152Z,1007.26
2016-07-12T00:15:49.147Z,1007.22
2016-07-12T00:15:59.144Z,1007.22
2016-07-12T00:16:09.139Z,1007.22
2016-07-12T00:16:19.132Z,1007.22
2016-07-12T00:16:29.128Z,1007.28
2016-07-12T00:16:39.126Z,1007.22
2016-07-12T00:16:49.120Z,1007.26
2016-07-12T00:16:59.112Z,1007.21
2016-07-12T00:17:09.112Z,1007.21
2016-07-12T00:17:19.107Z,1007.22
2016-07-12T00:17:29.103Z,1007.23
2016-07-12T00:17:39.095Z,1007.24
2016-07-12T00:17:49.096Z,1007.24
2016-07-12T00:17:59.089Z,1007.2
2016-07-12T00:18:09.084Z,1007.18
2016-07-12T00:18:19.090Z,1007.21
2016-07-12T00:18:29.075Z,1007.23
2016-07-12T00:18:39.070Z,1007.2
2016-07-12T00:18:49.067Z,1007.19
2016-07-12T00:18:59.060Z,1007.25
2016-07-12T00:19:09.055Z,1007.17
2016-07-12T00:19:19.052Z,1007.25
2016-07-12T00:19:29.048Z,1007.23
2016-07-12T00:19:39.044Z,1007.19
2016-07-12T00:19:49.036Z,1007.2
2016-07-12T00:19:59.033Z,1007.2
2016-07-12T00:20:09.758Z,1007.2
2016-07-12T00:20:19.025Z,1007.18
2016-07-12T00:20:29.019Z,1007.21
2016-07-12T00:20:39.014Z,1007.16
2016-07-12T00:20:49.013Z,1007.18
2016-07-12T00:20:59.006Z,1007.2
2016-07-12T00:21:09.002Z,1007.21
2016-07-12T00:21:18.998Z,1007.2
2016-07-12T00:21:28.994Z,1007.14
2016-07-12T00:21:38.989Z,1007.15
2016-07-12T00:21:48.983Z,1007.2
2016-07-12T00:21:58.979Z,1007.21
2016-07-12T00:22:08.975Z,1007.2
2016-07-12T00:22:18.974Z,1007.22
2016-07-12T00:22:28.964Z,1007.14
2016-07-12T00:22:38.961Z,1007.21
2016-07-12T00:22:48.957Z,1007.18
2016-07-12T00:22:58.960Z,1007.2
2016-07-12T00:23:08.945Z,1007.2
2016-07-12T00:23:18.942Z,1007.19
2016-07-12T00:23:28.938Z,1007.19
2016-07-12T00:23:38.935Z,1007.22
2016-07-12T00:23:48.925Z,1007.24
2016-07-12T00:23:58.924Z,1007.22
2016-07-12T00:24:08.920Z,1007.19
2016-07-12T00:24:18.913Z,1007.19
2016-07-12T00:24:28.911Z,1007.21
2016-07-12T00:24:38.911Z,1007.22
2016-07-12T00:24:48.901Z,1007.24
2016-07-12T00:24:58.895Z,1007.21
2016-07-12T00:25:08.889Z,1007.27
2016-07-12T00:25:18.886Z,1007.16
2016-07-12T00:25:28.881Z,1007.21
2016-07-12T00:25:38.875Z,1007.22
2016-07-12T00:25:48.872Z,1007.21
2016-07-12T00:25:58.870Z,1007.21
2016-07-12T00:26:08.865Z,1007.19
2016-07-12T00:26:18.858Z,1007.18
2016-07-12T00:26:28.855Z,1007.15
2016-07-12T00:26:38.853Z,1007.18
2016-07-12T00:26:48.847Z,1007.16
2016-07-12T00:26:58.843Z,1007.22
2016-07-12T00:27:08.838Z,1007.23
2016-07-12T00:27:18.834Z,1007.21
2016-07-12T00:27:28.832Z,1007.2
2016-07-12T00:27:38.825Z,1007.21
2016-07-12T00:27:48.832Z,1007.2
2016-07-12T00:27:58.815Z,1007.19
2016-07-12T00:28:08.812Z,1007.21
2016-07-12T00:28:18.805Z,1007.18
2016-07-12T00:28:28.800Z,1007.17
2016-07-12T00:28:38.796Z,1007.19
2016-07-12T00:28:48.789Z,1007.17
2016-07-12T00:28:58.787Z,1007.16
2016-07-12T00:29:08.786Z,1007.17
2016-07-12T00:29:18.776Z,1007.16
2016-07-12T00:29:28.772Z,1007.22
2016-07-12T00:29:38.767Z,1007.19
2016-07-12T00:29:48.764Z,1007.19
2016-07-12T00:29:58.759Z,1007.18
2016-07-12T00:30:08.751Z,1007.17
2016-07-12T00:30:18.750Z,1007.18
2016-07-12T00:30:28.745Z,1007.17
2016-07-12T00:30:38.741Z,1007.18
2016-07-12T00:30:48.737Z,1007.18
2016-07-12T00:30:58.734Z,1007.2
2016-07-12T00:31:08.739Z,1007.18
2016-07-12T00:31:18.724Z,1007.18
2016-07-12T00:31:28.718Z,1007.19
2016-07-12T00:31:38.713Z,1007.17
2016-07-12T00:31:48.710Z,1007.16
2016-07-12T00:31:58.705Z,1007.15
2016-07-12T00:32:08.702Z,1007.19
2016-07-12T00:32:18.696Z,1007.18
2016-07-12T00:32:28.692Z,1007.16
2016-07-12T00:32:38.688Z,1007.14
2016-07-12T00:32:48.679Z,1007.14
2016-07-12T00:32:58.677Z,1007.09
2016-07-12T00:33:08.675Z,1007.14
2016-07-12T00:33:18.667Z,1007.15
2016-07-12T00:33:28.664Z,1007.12
2016-07-12T00:33:38.658Z,1007.18
2016-07-12T00:33:48.655Z,1007.12
2016-07-12T00:33:58.650Z,1007.12
2016-07-12T00:34:08.642Z,1007.13
2016-07-12T00:34:18.641Z,1007.1
2016-07-12T00:34:28.635Z,1007.13
2016-07-12T00:34:38.630Z,1007.12
2016-07-12T00:34:48.627Z,1007.1
2016-07-12T00:34:58.620Z,1007.1
2016-07-12T00:35:08.618Z,1007.13
2016-07-12T00:35:18.612Z,1007.12
2016-07-12T00:35:28.609Z,1007.1
2016-07-12T00:35:38.604Z,1007.12
2016-07-12T00:35:48.600Z,1007.14
2016-07-12T00:35:58.595Z,1007.16
2016-07-12T00:36:08.591Z,1007.12
2016-07-12T00:36:18.586Z,1007.1
2016-07-12T00:36:28.580Z,1007.17
2016-07-12T00:36:38.583Z,1007.13
2016-07-12T00:36:48.573Z,1007.11
2016-07-12T00:36:58.568Z,1007.09
2016-07-12T00:37:08.562Z,1007.07
2016-07-12T00:37:18.557Z,1007.11
2016-07-12T00:37:28.555Z,1007.13
2016-07-12T00:37:38.548Z,1007.12
2016-07-12T00:37:48.542Z,1007.09
2016-07-12T00:37:58.540Z,1007.1
2016-07-12T00:38:08.532Z,1007.1
2016-07-12T00:38:18.529Z,1007.09
2016-07-12T00:38:28.523Z,1007.1
2016-07-12T00:38:38.520Z,1007.1
2016-07-12T00:38:48.516Z,1007.08
2016-07-12T00:38:58.509Z,1007.08
2016-07-12T00:39:08.505Z,1007.04
2016-07-12T00:39:18.502Z,1007.09
2016-07-12T00:39:28.500Z,1007.05
2016-07-12T00:39:38.492Z,1007.08
2016-07-12T00:39:48.488Z,1007.05
2016-07-12T00:39:58.483Z,1007.06
2016-07-12T00:40:08.482Z,1007.02
2016-07-12T00:40:18.474Z,1007.05
2016-07-12T00:40:28.472Z,1007.08
2016-07-12T00:40:38.466Z,1007.04
2016-07-12T00:40:48.461Z,1007.07
2016-07-12T00:40:58.458Z,1007.03
2016-07-12T00:41:08.453Z,1007.04
2016-07-12T00:41:18.451Z,1007.03
2016-07-12T00:41:28.443Z,1007.05
2016-07-12T00:41:38.435Z,1007.07
2016-07-12T00:41:48.434Z,1007.05
2016-07-12T00:41:58.430Z,1007.05
2016-07-12T00:42:08.426Z,1007.04
2016-07-12T00:42:18.421Z,1007.04
2016-07-12T00:42:28.412Z,1007.03
2016-07-12T00:42:38.411Z,1007.01
2016-07-12T00:42:48.408Z,1007
2016-07-12T00:42:58.402Z,1007.02
2016-07-12T00:43:08.398Z,1007.01
2016-07-12T00:43:18.391Z,1007.03
2016-07-12T00:43:28.386Z,1007.03
2016-07-12T00:43:38.381Z,1007
2016-07-12T00:43:48.379Z,1006.99
2016-07-12T00:43:58.372Z,1006.99
2016-07-12T00:44:08.372Z,1006.98
2016-07-12T00:44:18.364Z,1007.02
2016-07-12T00:44:28.360Z,1007.08
2016-07-12T00:44:38.356Z,1006.98
2016-07-12T00:44:49.080Z,1006.99
2016-07-12T00:44:58.347Z,1006.98
2016-07-12T00:45:08.341Z,1006.99
2016-07-12T00:45:18.339Z,1007
2016-07-12T00:45:28.335Z,1006.99
2016-07-12T00:45:38.330Z,1006.96
2016-07-12T00:45:48.324Z,1007.02
2016-07-12T00:45:58.326Z,1006.99
2016-07-12T00:46:08.315Z,1007.01
2016-07-12T00:46:18.310Z,1007.01
2016-07-12T00:46:28.306Z,1006.99
2016-07-12T00:46:38.302Z,1006.96
2016-07-12T00:46:48.297Z,1006.96
2016-07-12T00:46:58.303Z,1006.99
2016-07-12T00:47:08.285Z,1006.97
2016-07-12T00:47:18.282Z,1007.02
2016-07-12T00:47:28.278Z,1007.02
2016-07-12T00:47:38.270Z,1006.96
2016-07-12T00:47:48.268Z,1007.01
2016-07-12T00:47:58.264Z,1006.97
2016-07-12T00:48:08.260Z,1006.97
2016-07-12T00:48:18.253Z,1007.01
2016-07-12T00:48:28.249Z,1006.97
2016-07-12T00:48:38.254Z,1007.01
2016-07-12T00:48:48.242Z,1007.01
2016-07-12T00:48:58.235Z,1007.01
2016-07-12T00:49:08.959Z,1007.01
2016-07-12T00:49:18.227Z,1006.98
2016-07-12T00:49:28.223Z,1007
2016-07-12T00:49:38.226Z,1006.98
2016-07-12T00:49:48.215Z,1006.97
2016-07-12T00:49:58.217Z,1006.95
2016-07-12T00:50:08.205Z,1006.98
2016-07-12T00:50:18.203Z,1006.99
2016-07-12T00:50:28.196Z,1006.97
2016-07-12T00:50:38.190Z,1006.96
2016-07-12T00:50:48.185Z,1006.95
2016-07-12T00:50:58.181Z,1007
2016-07-12T00:51:08.179Z,1006.99
2016-07-12T00:51:18.172Z,1006.99
2016-07-12T00:51:28.165Z,1006.96
2016-07-12T00:51:38.161Z,1006.97
2016-07-12T00:51:48.157Z,1007
2016-07-12T00:51:58.153Z,1007.01
2016-07-12T00:52:08.147Z,1007.02
2016-07-12T00:52:18.143Z,1006.98
2016-07-12T00:52:28.138Z,1006.95
2016-07-12T00:52:38.135Z,1007.01
2016-07-12T00:52:48.138Z,1007
2016-07-12T00:52:58.126Z,1007
2016-07-12T00:53:08.132Z,1006.98
2016-07-12T00:53:18.117Z,1007.01
2016-07-12T00:53:28.111Z,1007.01
2016-07-12T00:53:38.111Z,1007
2016-07-12T00:53:48.104Z,1007.02
2016-07-12T00:53:58.099Z,1006.95
2016-07-12T00:54:08.092Z,1007.01
2016-07-12T00:54:18.092Z,1007.02
2016-07-12T00:54:28.088Z,1007.01
2016-07-12T00:54:38.082Z,1007.04
2016-07-12T00:54:48.076Z,1007
2016-07-12T00:54:58.070Z,1007.03
2016-07-12T00:55:08.068Z,1007.03
2016-07-12T00:55:18.062Z,1007.04
2016-07-12T00:55:28.056Z,1007
2016-07-12T00:55:38.052Z,1007.03
2016-07-12T00:55:48.048Z,1007.03
2016-07-12T00:55:58.042Z,1007
2016-07-12T00:56:08.038Z,1007.02
2016-07-12T00:56:18.034Z,1007.02
2016-07-12T00:56:28.030Z,1007.05
2016-07-12T00:56:38.024Z,1007
2016-07-12T00:56:48.019Z,1007
2016-07-12T00:56:58.015Z,1007.04
2016-07-12T00:57:08.011Z,1007
2016-07-12T00:57:18.005Z,1007.04
2016-07-12T00:57:28.002Z,1007
2016-07-12T00:57:37.996Z,1007.02
2016-07-12T00:57:47.991Z,1007.02
2016-07-12T00:57:57.986Z,1007.05
2016-07-12T00:58:07.983Z,1007.03
2016-07-12T00:58:17.980Z,1007.02
2016-07-12T00:58:27.973Z,1006.99
2016-07-12T00:58:37.971Z,1007.06
2016-07-12T00:58:47.965Z,1007.04
2016-07-12T00:58:57.960Z,1007.01
2016-07-12T00:59:07.954Z,1007.01
2016-07-12T00:59:17.953Z,1007.06
2016-07-12T00:59:27.950Z,1006.99
2016-07-12T00:59:37.944Z,1007.04
2016-07-12T00:59:47.936Z,1007.04
2016-07-12T00:59:57.932Z,1007.05
2016-07-12T01:00:07.926Z,1007.02
2016-07-12T01:00:17.922Z,1007.04
2016-07-12T01:00:27.919Z,1007.05
2016-07-12T01:00:37.914Z,1007.04
2016-07-12T01:00:47.908Z,1007.02
2016-07-12T01:00:57.903Z,1007.04
2016-07-12T01:01:07.900Z,1007.01
2016-07-12T01:01:17.895Z,1007.08
2016-07-12T01:01:27.889Z,1007.06
2016-07-12T01:01:37.882Z,1007.04
2016-07-12T01:01:47.880Z,1007.07
2016-07-12T01:01:57.876Z,1007.04
2016-07-12T01:02:07.869Z,1007.05
2016-07-12T01:02:17.869Z,1007.05
2016-07-12T01:02:27.863Z,1007.05
2016-07-12T01:02:37.864Z,1007.06
2016-07-12T01:02:47.854Z,1007.04
2016-07-12T01:02:57.849Z,1007.05
2016-07-12T01:03:07.846Z,1007.06
2016-07-12T01:03:17.842Z,1007.07
2016-07-12T01:03:27.838Z,1007.03
2016-07-12T01:03:37.832Z,1007.05
2016-07-12T01:03:47.825Z,1007.06
2016-07-12T01:03:57.823Z,1007.09
2016-07-12T01:04:07.822Z,1007.07
2016-07-12T01:04:17.818Z,1007.05
2016-07-12T01:04:27.810Z,1007.04
2016-07-12T01:04:37.805Z,1007.05
2016-07-12T01:04:47.797Z,1007.04
2016-07-12T01:04:57.795Z,1007.06
2016-07-12T01:05:07.791Z,1007.09
2016-07-12T01:05:17.785Z,1007.04
2016-07-12T01:05:27.782Z,1007.05
2016-07-12T01:05:37.782Z,1007.06
2016-07-12T01:05:47.772Z,1007.04
2016-07-12T01:05:57.770Z,1007.08
2016-07-12T01:06:07.760Z,1007.07
2016-07-12T01:06:17.758Z,1007.04
2016-07-12T01:06:27.750Z,1007.05
2016-07-12T01:06:37.747Z,1007.01
2016-07-12T01:06:47.744Z,1007.03
2016-07-12T01:06:57.741Z,1007.04
2016-07-12T01:07:07.735Z,1007.06
2016-07-12T01:07:17.731Z,1007.04
2016-07-12T01:07:27.726Z,1007.04
2016-07-12T01:07:37.722Z,1007.05
2016-07-12T01:07:47.717Z,1007.05
2016-07-12T01:07:57.712Z,1007.06
2016-07-12T01:08:07.707Z,1007.02
2016-07-12T01:08:17.706Z,1007.05
2016-07-12T01:08:27.698Z,1007.05
2016-07-12T01:08:37.692Z,1007.07
2016-07-12T01:08:47.689Z,1007.05
2016-07-12T01:08:57.686Z,1007.02
2016-07-12T01:09:07.676Z,1007.05
2016-07-12T01:09:17.675Z,1007.01
2016-07-12T01:09:27.679Z,1007.08
2016-07-12T01:09:37.663Z,1007.02
2016-07-12T01:09:47.659Z,1007.01
2016-07-12T01:09:57.657Z,1007.11
2016-07-12T01:10:07.650Z,1007.01
2016-07-12T01:10:17.647Z,1007.06
2016-07-12T01:10:27.642Z,1007.05
2016-07-12T01:10:37.636Z,1007.02
2016-07-12T01:10:47.631Z,1007.02
2016-07-12T01:10:57.626Z,1007.03
2016-07-12T01:11:07.625Z,1007.02
2016-07-12T01:11:17.620Z,1007.03
2016-07-12T01:11:27.615Z,1007.08
2016-07-12T01:11:37.610Z,1007.06
2016-07-12T01:11:47.603Z,1007.05
2016-07-12T01:11:57.603Z,1007.04
2016-07-12T01:12:07.597Z,1007.05
2016-07-12T01:12:17.593Z,1007.07
2016-07-12T01:12:27.586Z,1007
2016-07-12T01:12:37.583Z,1007.05
2016-07-12T01:12:47.579Z,1007.02
2016-07-12T01:12:57.574Z,1007.03
2016-07-12T01:13:07.569Z,1007.04
2016-07-12T01:13:17.565Z,1007.04
2016-07-12T01:13:27.561Z,1007.06
2016-07-12T01:13:37.556Z,1007.11
2016-07-12T01:13:47.550Z,1007.05
2016-07-12T01:13:57.548Z,1006.98
2016-07-12T01:14:07.543Z,1006.99
2016-07-12T01:14:17.537Z,1007.05
2016-07-12T01:14:27.530Z,1007.05
2016-07-12T01:14:37.527Z,1007.03
2016-07-12T01:14:47.522Z,1007.07
2016-07-12T01:14:57.517Z,1007.1
2016-07-12T01:15:07.511Z,1007.05
2016-07-12T01:15:17.507Z,1007.09
2016-07-12T01:15:27.506Z,1007.03
2016-07-12T01:15:37.501Z,1007.01
2016-07-12T01:15:47.495Z,1007.07
2016-07-12T01:15:57.491Z,1007.04
2016-07-12T01:16:07.485Z,1007.06
2016-07-12T01:16:17.480Z,1007.03
2016-07-12T01:16:27.475Z,1007.06
2016-07-12T01:16:37.470Z,1007.03
2016-07-12T01:16:47.467Z,1007.06
2016-07-12T01:16:57.465Z,1007.06
2016-07-12T01:17:07.456Z,1007.04
2016-07-12T01:17:17.454Z,1007.06
2016-07-12T01:17:27.451Z,1007.02
2016-07-12T01:17:37.444Z,1007.04
2016-07-12T01:17:47.441Z,1007.07
2016-07-12T01:17:57.432Z,1007.03
2016-07-12T01:18:07.428Z,1007.05
2016-07-12T01:18:17.425Z,1007.03
2016-07-12T01:18:27.422Z,1007.06
2016-07-12T01:18:37.415Z,1007.04
2016-07-12T01:18:47.410Z,1007.09
2016-07-12T01:18:57.417Z,1007.04
2016-07-12T01:19:07.401Z,1007.08
2016-07-12T01:19:17.396Z,1007.04
2016-07-12T01:19:28.130Z,1007.04
2016-07-12T01:19:37.386Z,1007.09
2016-07-12T01:19:47.381Z,1007.07
2016-07-12T01:19:57.379Z,1007.06
2016-07-12T01:20:07.373Z,1007.08
2016-07-12T01:20:17.370Z,1007.09
2016-07-12T01:20:27.365Z,1007.06
2016-07-12T01:20:37.361Z,1007.05
2016-07-12T01:20:47.357Z,1007.08
2016-07-12T01:20:57.350Z,1007.1
2016-07-12T01:21:07.347Z,1007.05
2016-07-12T01:21:17.342Z,1007.1
2016-07-12T01:21:27.339Z,1007.08
2016-07-12T01:21:37.333Z,1007.1
2016-07-12T01:21:47.327Z,1007.14
2016-07-12T01:21:57.326Z,1007.08
2016-07-12T01:22:07.320Z,1007.11
2016-07-12T01:22:17.314Z,1007.13
2016-07-12T01:22:27.307Z,1007.13
2016-07-12T01:22:37.304Z,1007.07
2016-07-12T01:22:47.300Z,1007.12
2016-07-12T01:22:57.296Z,1007.09
2016-07-12T01:23:07.292Z,1007.07
2016-07-12T01:23:17.288Z,1007.09
2016-07-12T01:23:27.282Z,1007.08
2016-07-12T01:23:37.277Z,1007.14
2016-07-12T01:23:47.271Z,1007.1
2016-07-12T01:23:57.268Z,1007.11
2016-07-12T01:24:07.264Z,1007.14
2016-07-12T01:24:17.259Z,1007.12
2016-07-12T01:24:27.254Z,1007.1
2016-07-12T01:24:37.248Z,1007.16
2016-07-12T01:24:47.244Z,1007.12
2016-07-12T01:24:57.240Z,1007.11
2016-07-12T01:25:07.236Z,1007.16
2016-07-12T01:25:17.230Z,1007.1
2016-07-12T01:25:27.958Z,1007.14
2016-07-12T01:25:37.221Z,1007.14
2016-07-12T01:25:47.219Z,1007.16
2016-07-12T01:25:57.214Z,1007.11
2016-07-12T01:26:07.212Z,1007.12
2016-07-12T01:26:17.206Z,1007.11
2016-07-12T01:26:27.198Z,1007.12
2016-07-12T01:26:37.193Z,1007.11
2016-07-12T01:26:47.191Z,1007.16
2016-07-12T01:26:57.186Z,1007.12
2016-07-12T01:27:07.180Z,1007.13
2016-07-12T01:27:17.177Z,1007.12
2016-07-12T01:27:27.168Z,1007.16
2016-07-12T01:27:37.181Z,1007.15
2016-07-12T01:27:47.160Z,1007.14
2016-07-12T01:27:57.162Z,1007.17
2016-07-12T01:28:07.154Z,1007.15
2016-07-12T01:28:17.146Z,1007.18
2016-07-12T01:28:27.143Z,1007.17
2016-07-12T01:28:37.150Z,1007.21
2016-07-12T01:28:47.132Z,1007.2
2016-07-12T01:28:57.127Z,1007.17
2016-07-12T01:29:07.125Z,1007.19
2016-07-12T01:29:17.120Z,1007.19
2016-07-12T01:29:27.115Z,1007.14
2016-07-12T01:29:37.111Z,1007.21
2016-07-12T01:29:47.108Z,1007.14
2016-07-12T01:29:57.102Z,1007.17
2016-07-12T01:30:07.098Z,1007.14
2016-07-12T01:30:17.094Z,1007.18
2016-07-12T01:30:27.087Z,1007.14
2016-07-12T01:30:37.084Z,1007.17
2016-07-12T01:30:47.080Z,1007.16
2016-07-12T01:30:57.076Z,1007.13
2016-07-12T01:31:07.071Z,1007.14
2016-07-12T01:31:17.064Z,1007.13
2016-07-12T01:31:27.061Z,1007.11
2016-07-12T01:31:37.058Z,1007.12
2016-07-12T01:31:47.050Z,1007.07
2016-07-12T01:31:57.047Z,1007.15
2016-07-12T01:32:07.040Z,1007.15
2016-07-12T01:32:17.036Z,1007.15
2016-07-12T01:32:27.033Z,1007.09
2016-07-12T01:32:37.038Z,1007.15
2016-07-12T01:32:47.021Z,1007.14
2016-07-12T01:32:57.018Z,1007.11
2016-07-12T01:33:07.012Z,1007.07
2016-07-12T01:33:17.007Z,1007.11
2016-07-12T01:33:27.004Z,1007.13
2016-07-12T01:33:37.002Z,1007.16
2016-07-12T01:33:46.996Z,1007.14
2016-07-12T01:33:56.993Z,1007.11
2016-07-12T01:34:06.985Z,1007.16
2016-07-12T01:34:16.982Z,1007.07
2016-07-12T01:34:26.975Z,1007.08
2016-07-12T01:34:36.974Z,1007.15
2016-07-12T01:34:46.969Z,1007.08
2016-07-12T01:34:56.965Z,1007.1
2016-07-12T01:35:06.958Z,1007.09
2016-07-12T01:35:16.955Z,1007.09
2016-07-12T01:35:26.949Z,1007.15
2016-07-12T01:35:36.946Z,1007.1
2016-07-12T01:35:46.940Z,1007.11
2016-07-12T01:35:56.936Z,1007.05
2016-07-12T01:36:06.931Z,1007.11
2016-07-12T01:36:16.926Z,1007.14
2016-07-12T01:36:26.919Z,1007.1
2016-07-12T01:36:36.916Z,1007.16
2016-07-12T01:36:46.913Z,1007.08
2016-07-12T01:36:56.906Z,1007.14
2016-07-12T01:37:06.901Z,1007.1
2016-07-12T01:37:16.896Z,1007.14
2016-07-12T01:37:26.892Z,1007.12
2016-07-12T01:37:36.886Z,1007.15
2016-07-12T01:37:46.884Z,1007.12
2016-07-12T01:37:56.882Z,1007.15
2016-07-12T01:38:06.876Z,1007.2
2016-07-12T01:38:16.872Z,1007.15
2016-07-12T01:38:27.602Z,1007.16
2016-07-12T01:38:36.862Z,1007.09
2016-07-12T01:38:46.858Z,1007.13
2016-07-12T01:38:56.852Z,1007.11
2016-07-12T01:39:06.847Z,1007.15
2016-07-12T01:39:16.841Z,1007.1
2016-07-12T01:39:26.835Z,1007.11
2016-07-12T01:39:36.837Z,1007.12
2016-07-12T01:39:46.831Z,1007.11
2016-07-12T01:39:56.825Z,1007.11
2016-07-12T01:40:06.820Z,1007.13
2016-07-12T01:40:16.813Z,1007.1
2016-07-12T01:40:26.810Z,1007.11
2016-07-12T01:40:36.808Z,1007.11
2016-07-12T01:40:46.810Z,1007.15
2016-07-12T01:40:56.800Z,1007.13
2016-07-12T01:41:06.802Z,1007.06
2016-07-12T01:41:16.788Z,1007.07
2016-07-12T01:41:26.782Z,1007.13
2016-07-12T01:41:36.774Z,1007.06
2016-07-12T01:41:46.774Z,1007.13
2016-07-12T01:41:56.769Z,1007.09
2016-07-12T01:42:06.764Z,1007.08
2016-07-12T01:42:16.759Z,1007.07
2016-07-12T01:42:26.764Z,1007.04
2016-07-12T01:42:36.751Z,1007.04
2016-07-12T01:42:46.747Z,1007.02
2016-07-12T01:42:56.742Z,1007.02
2016-07-12T01:43:06.738Z,1007.03
2016-07-12T01:43:16.733Z,1007.02
2016-07-12T01:43:26.730Z,1007.04
2016-07-12T01:43:36.724Z,1007.04
2016-07-12T01:43:46.717Z,1006.97
2016-07-12T01:43:56.717Z,1007
2016-07-12T01:44:06.710Z,1007.02
2016-07-12T01:44:16.712Z,1007.04
2016-07-12T01:44:26.698Z,1007
2016-07-12T01:44:36.691Z,1007.02
2016-07-12T01:44:46.690Z,1007
2016-07-12T01:44:56.684Z,1007
2016-07-12T01:45:06.680Z,1007.03
2016-07-12T01:45:16.675Z,1006.98
2016-07-12T01:45:26.671Z,1007.01
2016-07-12T01:45:36.664Z,1006.99
2016-07-12T01:45:46.661Z,1007.01
2016-07-12T01:45:56.656Z,1006.99
2016-07-12T01:46:06.653Z,1007
2016-07-12T01:46:16.648Z,1006.98
2016-07-12T01:46:26.643Z,1007.03
2016-07-12T01:46:36.639Z,1007.02
2016-07-12T01:46:46.641Z,1007.01
2016-07-12T01:46:56.635Z,1007.03
2016-07-12T01:47:06.626Z,1007.04
2016-07-12T01:47:16.620Z,1007.08
2016-07-12T01:47:26.615Z,1007
2016-07-12T01:47:36.612Z,1007.03
2016-07-12T01:47:46.607Z,1007.04
2016-07-12T01:47:56.602Z,1007.03
2016-07-12T01:48:06.597Z,1006.99
2016-07-12T01:48:16.591Z,1006.98
2016-07-12T01:48:26.587Z,1007.01
2016-07-12T01:48:36.584Z,1007.05
2016-07-12T01:48:46.577Z,1007.06
2016-07-12T01:48:56.572Z,1007.05
2016-07-12T01:49:06.568Z,1007.01
2016-07-12T01:49:16.563Z,1007.02
2016-07-12T01:49:26.560Z,1007.07
2016-07-12T01:49:36.553Z,1007.08
2016-07-12T01:49:46.547Z,1007.08
2016-07-12T01:49:56.546Z,1007.04
2016-07-12T01:50:06.540Z,1007.05
2016-07-12T01:50:16.536Z,1007.05
2016-07-12T01:50:26.530Z,1007.07
2016-07-12T01:50:36.527Z,1007.09
2016-07-12T01:50:46.524Z,1007.05
2016-07-12T01:50:56.517Z,1007.05
2016-07-12T01:51:06.512Z,1007.09
2016-07-12T01:51:16.510Z,1007.06
2016-07-12T01:51:26.515Z,1007.04
2016-07-12T01:51:36.500Z,1007.08
2016-07-12T01:51:46.494Z,1007.06
2016-07-12T01:51:56.490Z,1007.08
2016-07-12T01:52:06.486Z,1007.07
2016-07-12T01:52:16.480Z,1007.05
2016-07-12T01:52:26.492Z,1007.06
2016-07-12T01:52:36.470Z,1007.09
2016-07-12T01:52:46.467Z,1007.05
2016-07-12T01:52:56.464Z,1007.06
2016-07-12T01:53:06.457Z,1007.07
2016-07-12T01:53:16.454Z,1007.07
2016-07-12T01:53:26.446Z,1007.04
2016-07-12T01:53:36.442Z,1007.06
2016-07-12T01:53:46.439Z,1007.04
2016-07-12T01:53:56.433Z,1007.07
2016-07-12T01:54:06.426Z,1007.08
2016-07-12T01:54:16.424Z,1007.11
2016-07-12T01:54:26.421Z,1007.08
2016-07-12T01:54:36.416Z,1007.07
2016-07-12T01:54:46.412Z,1007.07
2016-07-12T01:54:56.407Z,1007.05
2016-07-12T01:55:06.401Z,1007.01
2016-07-12T01:55:16.398Z,1007.05
2016-07-12T01:55:26.393Z,1007.05
2016-07-12T01:55:36.388Z,1007.01
2016-07-12T01:55:46.384Z,1007.03
2016-07-12T01:55:57.109Z,1007.09
2016-07-12T01:56:06.375Z,1007.08
2016-07-12T01:56:16.370Z,1007.03
2016-07-12T01:56:26.366Z,1007.06
2016-07-12T01:56:36.362Z,1007.05
2016-07-12T01:56:46.353Z,1007.03
2016-07-12T01:56:56.351Z,1007.07
2016-07-12T01:57:06.348Z,1007.04
2016-07-12T01:57:16.343Z,1007.02
2016-07-12T01:57:26.335Z,1007.04
2016-07-12T01:57:36.330Z,1007.05
2016-07-12T01:57:46.333Z,1007.03
2016-07-12T01:57:56.322Z,1007.02
2016-07-12T01:58:06.317Z,1007.01
2016-07-12T01:58:16.312Z,1006.99
2016-07-12T01:58:26.309Z,1007.04
2016-07-12T01:58:36.305Z,1007.02
2016-07-12T01:58:46.301Z,1007
2016-07-12T01:58:56.294Z,1006.99
2016-07-12T01:59:06.292Z,1007.04
2016-07-12T01:59:16.285Z,1007.06
2016-07-12T01:59:26.281Z,1007.04
2016-07-12T01:59:36.277Z,1007.02
2016-07-12T01:59:46.273Z,1007.07
2016-07-12T01:59:56.269Z,1007.07
2016-07-12T02:00:06.264Z,1007.04
2016-07-12T02:00:16.259Z,1007
2016-07-12T02:00:26.255Z,1007.02
2016-07-12T02:00:36.252Z,1007.04
2016-07-12T02:00:46.244Z,1007.03
2016-07-12T02:00:56.241Z,1007.05
2016-07-12T02:01:06.234Z,1007.05
2016-07-12T02:01:16.232Z,1007.04
2016-07-12T02:01:26.224Z,1007.03
2016-07-12T02:01:36.220Z,1007.03